Time;durP1;ratioP1;P1;durP2;ratioP2;P2;SDS_P1;SDS_P2;PMS_P1;PMS_P2;Temp;Humidity;BMP_temperature;BMP_pressure;BME280_temperature;BME280_humidity;BME280_pressure;Samples;Min_cycle;Max_cycle;Signal;HPM_P1;HPM_P2
2022/07/08 00:00:38;;;;;;;8.20;2.60;;;15.00;99.90;;;;;;5094412;28;20153;-68
2022/07/08 00:03:04;;;;;;;5.30;2.60;;;15.00;99.90;;;;;;5094142;28;20645;-68
2022/07/08 00:05:30;;;;;;;12.95;2.88;;;15.00;99.90;;;;;;5094365;28;20204;-69
2022/07/08 00:07:56;;;;;;;6.07;2.95;;;15.00;99.90;;;;;;5093350;28;20250;-68
2022/07/08 00:10:22;;;;;;;11.05;2.70;;;15.00;99.90;;;;;;5094376;28;20229;-69
2022/07/08 00:12:48;;;;;;;6.05;2.50;;;15.00;99.90;;;;;;5094148;28;20661;-68
2022/07/08 00:15:14;;;;;;;9.20;2.35;;;14.90;99.90;;;;;;5094409;28;20177;-68
2022/07/08 00:17:39;;;;;;;10.80;2.63;;;14.90;99.90;;;;;;5092698;28;20197;-69
2022/07/08 00:20:06;;;;;;;9.48;3.00;;;14.80;99.90;;;;;;5092830;28;20573;-68
2022/07/08 00:22:33;;;;;;;7.38;2.97;;;14.80;99.90;;;;;;5093946;28;20181;-68
2022/07/08 00:24:59;;;;;;;6.60;2.70;;;14.80;99.90;;;;;;5093967;28;20567;-69
2022/07/08 00:27:25;;;;;;;5.72;2.30;;;14.80;99.90;;;;;;5094675;28;20169;-69
2022/07/08 00:29:51;;;;;;;6.13;2.42;;;14.80;99.90;;;;;;5093493;28;20212;-69
2022/07/08 00:32:18;;;;;;;8.60;2.78;;;14.80;99.90;;;;;;5094128;28;20166;-69
2022/07/08 00:34:43;;;;;;;5.63;2.58;;;14.80;99.90;;;;;;5093814;28;20581;-68
2022/07/08 00:37:10;;;;;;;6.25;2.30;;;14.80;99.90;;;;;;5097597;28;20256;-68
2022/07/08 00:39:37;;;;;;;7.55;2.50;;;14.80;99.90;;;;;;5097653;28;20275;-68
2022/07/08 00:42:03;;;;;;;7.75;2.90;;;14.80;99.90;;;;;;5097604;28;20304;-69
2022/07/08 00:44:29;;;;;;;7.43;2.55;;;14.80;99.90;;;;;;5097174;28;20230;-68
2022/07/08 00:46:54;;;;;;;5.57;2.50;;;14.90;99.90;;;;;;5097246;28;20165;-70
2022/07/08 00:49:20;;;;;;;6.30;2.35;;;14.80;99.90;;;;;;5097197;28;20535;-68
2022/07/08 00:51:47;;;;;;;8.43;2.47;;;14.80;99.90;;;;;;5097143;28;20172;-68
2022/07/08 00:54:15;;;;;;;9.23;2.80;;;14.90;99.90;;;;;;5096011;28;20177;-68
2022/07/08 00:56:41;;;;;;;7.20;2.78;;;14.80;99.90;;;;;;5097337;28;20208;-68
2022/07/08 00:59:09;;;;;;;6.80;2.30;;;14.80;99.90;;;;;;5096957;28;20220;-68
2022/07/08 01:01:35;;;;;;;3.83;2.50;;;14.80;99.90;;;;;;5097421;28;20252;-69
2022/07/08 01:04:01;;;;;;;5.32;2.60;;;14.80;99.90;;;;;;5097346;28;20283;-68
2022/07/08 01:06:27;;;;;;;7.60;2.53;;;14.80;99.90;;;;;;5097412;28;20530;-69
2022/07/08 01:08:53;;;;;;;6.13;2.50;;;14.80;99.90;;;;;;5097018;28;20185;-68
2022/07/08 01:11:19;;;;;;;6.82;2.75;;;14.80;99.90;;;;;;5097251;28;20256;-68
2022/07/08 01:13:46;;;;;;;7.47;2.50;;;14.80;99.90;;;;;;5096747;28;20256;-68
2022/07/08 01:16:12;;;;;;;4.90;2.50;;;14.70;99.90;;;;;;5096879;28;20177;-68
2022/07/08 01:18:40;;;;;;;7.70;2.65;;;14.70;99.90;;;;;;5096643;28;20304;-68
2022/07/08 01:21:06;;;;;;;4.78;2.42;;;14.70;99.90;;;;;;5096720;28;20181;-68
2022/07/08 01:23:32;;;;;;;9.02;2.80;;;14.70;99.90;;;;;;5096663;28;20205;-68
2022/07/08 01:25:59;;;;;;;7.45;2.35;;;14.70;99.90;;;;;;5095496;28;20173;-69
2022/07/08 01:28:25;;;;;;;9.25;2.90;;;14.70;99.90;;;;;;5096990;28;20193;-68
2022/07/08 01:30:51;;;;;;;6.38;2.70;;;14.70;99.90;;;;;;5096722;28;20271;-67
2022/07/08 01:33:17;;;;;;;6.63;2.55;;;14.70;99.90;;;;;;5096894;28;20628;-69
2022/07/08 01:35:43;;;;;;;5.38;2.50;;;14.70;99.90;;;;;;5096639;28;20169;-68
2022/07/08 01:38:09;;;;;;;9.05;3.13;;;14.70;99.90;;;;;;5095661;28;20193;-68
2022/07/08 01:40:35;;;;;;;7.10;2.65;;;14.70;99.90;;;;;;5097631;28;20531;-67
2022/07/08 01:43:01;;;;;;;7.88;3.33;;;14.70;99.90;;;;;;5097368;28;20251;-68
2022/07/08 01:45:27;;;;;;;5.90;2.42;;;14.60;99.90;;;;;;5097295;28;20192;-68
2022/07/08 01:47:52;;;;;;;5.43;2.22;;;14.60;99.90;;;;;;5095934;28;20260;-68
2022/07/08 01:50:18;;;;;;;6.13;2.30;;;14.60;99.90;;;;;;5096210;28;20181;-68
2022/07/08 01:52:44;;;;;;;6.28;2.63;;;14.60;99.90;;;;;;5096583;28;20177;-69
2022/07/08 01:55:10;;;;;;;6.35;2.58;;;14.60;99.90;;;;;;5096651;28;20599;-68
2022/07/08 01:57:36;;;;;;;6.43;2.30;;;14.60;99.90;;;;;;5095932;28;20161;-68
2022/07/08 02:00:04;;;;;;;7.65;2.63;;;14.60;99.90;;;;;;5096157;28;20185;-68
2022/07/08 02:02:30;;;;;;;4.57;2.42;;;14.60;99.90;;;;;;5094948;28;20173;-68
2022/07/08 02:04:56;;;;;;;6.47;2.42;;;14.50;99.90;;;;;;5096025;28;20608;-68
2022/07/08 02:07:22;;;;;;;8.27;2.90;;;14.50;99.90;;;;;;5096013;28;20176;-70
2022/07/08 02:09:48;;;;;;;6.50;2.67;;;14.50;99.90;;;;;;5096266;28;20185;-68
2022/07/08 02:12:20;;;;;;;3.60;2.25;;;14.50;99.90;;;;;;5095784;28;20196;-68
2022/07/08 02:14:51;;;;;;;3.95;2.45;;;14.50;99.90;;;;;;5095612;28;20165;-71
2022/07/08 02:17:18;;;;;;;4.95;2.72;;;14.50;99.90;;;;;;5095568;28;20590;-68
2022/07/08 02:19:44;;;;;;;6.43;2.55;;;14.50;99.90;;;;;;5107343;28;20260;-68
2022/07/08 02:22:10;;;;;;;8.18;2.72;;;14.40;99.90;;;;;;5116314;28;20176;-68
2022/07/08 02:24:37;;;;;;;6.28;2.40;;;14.40;99.90;;;;;;5115956;28;20249;-68
2022/07/08 02:27:03;;;;;;;4.55;2.58;;;14.50;99.90;;;;;;5115916;28;20169;-68
2022/07/08 02:29:30;;;;;;;7.50;2.92;;;14.40;99.90;;;;;;5115323;28;20184;-68
2022/07/08 02:31:56;;;;;;;6.93;2.40;;;14.40;99.90;;;;;;5116484;28;20172;-68
2022/07/08 02:34:22;;;;;;;3.33;2.45;;;14.40;99.90;;;;;;5115838;28;20176;-68
2022/07/08 02:36:48;;;;;;;7.88;2.67;;;14.40;99.90;;;;;;5115843;28;20172;-68
2022/07/08 02:39:14;;;;;;;8.70;2.35;;;14.40;99.90;;;;;;5115923;28;20195;-68
2022/07/08 02:41:40;;;;;;;4.60;2.45;;;14.40;99.90;;;;;;5115612;28;20200;-68
2022/07/08 02:44:06;;;;;;;5.63;2.47;;;14.40;99.90;;;;;;5115141;28;20198;-68
2022/07/08 02:46:33;;;;;;;7.00;2.60;;;14.40;99.90;;;;;;5115500;28;20225;-68
2022/07/08 02:48:59;;;;;;;7.13;2.75;;;14.40;99.90;;;;;;5110094;28;20692;-68
2022/07/08 02:51:24;;;;;;;11.98;2.60;;;14.40;99.90;;;;;;5095066;28;20256;-68
2022/07/08 02:53:50;;;;;;;9.93;2.42;;;14.40;99.90;;;;;;5095551;28;20204;-68
2022/07/08 02:56:16;;;;;;;5.05;2.45;;;14.40;99.90;;;;;;5095244;28;20165;-68
2022/07/08 02:58:42;;;;;;;8.45;2.80;;;14.40;99.90;;;;;;5094627;28;20204;-69
2022/07/08 03:01:08;;;;;;;5.72;2.40;;;14.40;99.90;;;;;;5093652;28;20181;-69
2022/07/08 03:03:33;;;;;;;5.32;2.50;;;14.40;99.90;;;;;;5094888;28;20642;-69
2022/07/08 03:05:59;;;;;;;6.10;2.60;;;14.40;99.90;;;;;;5095192;28;20173;-69
2022/07/08 03:08:25;;;;;;;7.22;2.83;;;14.40;99.90;;;;;;5095291;28;20615;-69
2022/07/08 03:10:51;;;;;;;8.00;2.75;;;14.30;99.90;;;;;;5094696;28;20177;-68
2022/07/08 03:13:17;;;;;;;6.40;2.58;;;14.40;99.90;;;;;;5093508;28;20208;-68
2022/07/08 03:15:43;;;;;;;9.27;2.85;;;14.30;99.90;;;;;;5094861;28;20541;-68
2022/07/08 03:18:09;;;;;;;6.88;2.70;;;14.40;99.90;;;;;;5094591;28;20696;-69
2022/07/08 03:20:34;;;;;;;9.75;2.83;;;14.30;99.90;;;;;;5093366;28;20213;-69
2022/07/08 03:23:00;;;;;;;5.80;2.53;;;14.30;99.90;;;;;;5094563;28;20196;-69
2022/07/08 03:25:27;;;;;;;7.50;3.10;;;14.30;99.90;;;;;;5094601;28;20193;-69
2022/07/08 03:27:52;;;;;;;5.45;2.67;;;14.30;99.90;;;;;;5094581;28;20169;-69
2022/07/08 03:30:18;;;;;;;9.98;2.60;;;14.30;99.90;;;;;;5094601;28;20255;-68
2022/07/08 03:32:44;;;;;;;5.18;3.05;;;14.30;99.90;;;;;;5094511;28;20196;-69
2022/07/08 03:35:10;;;;;;;8.50;3.00;;;14.30;99.90;;;;;;5094647;28;20530;-68
2022/07/08 03:37:41;;;;;;;7.80;2.75;;;14.30;99.90;;;;;;5094258;28;20173;-69
2022/07/08 03:42:53;;;;;;;8.30;2.75;;;14.20;99.90;;;;;;5094756;28;20657;-69
2022/07/08 03:45:18;;;;;;;8.27;2.40;;;14.20;99.90;;;;;;5094216;28;20199;-69
2022/07/08 03:47:44;;;;;;;9.30;2.63;;;14.20;99.90;;;;;;5094814;28;20169;-69
2022/07/08 03:50:10;;;;;;;6.53;2.80;;;14.30;99.90;;;;;;5094111;28;20705;-69
2022/07/08 03:52:36;;;;;;;9.25;3.08;;;14.30;99.90;;;;;;5094310;28;20192;-68
2022/07/08 03:55:01;;;;;;;4.75;2.67;;;14.30;99.90;;;;;;5094421;28;20170;-68
2022/07/08 03:57:27;;;;;;;8.40;3.15;;;14.30;99.90;;;;;;5092963;28;20173;-68
2022/07/08 03:59:53;;;;;;;9.48;3.30;;;14.30;99.90;;;;;;5094385;28;20567;-68
2022/07/08 04:02:19;;;;;;;7.47;3.22;;;14.30;99.90;;;;;;5094507;28;20260;-68
2022/07/08 04:04:44;;;;;;;5.75;2.88;;;14.30;99.90;;;;;;5094516;28;20196;-68
2022/07/08 04:07:10;;;;;;;7.32;2.97;;;14.30;99.90;;;;;;5094077;28;20196;-69
2022/07/08 04:09:36;;;;;;;6.82;2.60;;;14.30;99.90;;;;;;5094167;28;20212;-69
2022/07/08 04:12:02;;;;;;;6.30;2.72;;;14.30;99.90;;;;;;5098384;28;20172;-68
2022/07/08 04:14:27;;;;;;;6.88;2.83;;;14.30;99.90;;;;;;5096798;28;20261;-69
2022/07/08 04:16:53;;;;;;;10.35;3.13;;;14.30;99.90;;;;;;5098338;28;20200;-69
2022/07/08 04:19:19;;;;;;;6.22;3.10;;;14.30;99.90;;;;;;5096836;28;20215;-68
2022/07/08 04:21:44;;;;;;;9.95;2.65;;;14.30;99.90;;;;;;5098737;28;20230;-69
2022/07/08 04:24:10;;;;;;;11.20;3.65;;;14.30;99.90;;;;;;5098091;28;20204;-69
2022/07/08 04:26:36;;;;;;;7.57;2.80;;;14.30;99.90;;;;;;5098138;28;20165;-68
2022/07/08 04:29:02;;;;;;;6.38;2.38;;;14.30;99.90;;;;;;5098082;28;20684;-69
2022/07/08 04:31:28;;;;;;;9.18;2.80;;;14.40;99.90;;;;;;5098249;28;20180;-69
2022/07/08 04:33:54;;;;;;;6.18;2.60;;;14.40;99.90;;;;;;5098277;28;20256;-69
2022/07/08 04:36:21;;;;;;;6.22;2.78;;;14.40;99.90;;;;;;5097918;28;20169;-68
2022/07/08 04:38:47;;;;;;;11.38;3.03;;;14.40;99.90;;;;;;5098221;28;20565;-69
2022/07/08 04:41:13;;;;;;;9.32;3.28;;;14.40;99.90;;;;;;5098118;28;20173;-69
2022/07/08 04:43:39;;;;;;;6.32;2.40;;;14.40;99.90;;;;;;5097523;28;20200;-69
2022/07/08 04:46:05;;;;;;;4.70;2.60;;;14.40;99.90;;;;;;5097801;28;20607;-68
2022/07/08 04:48:31;;;;;;;7.03;2.47;;;14.50;99.90;;;;;;5098205;28;20189;-68
2022/07/08 04:50:57;;;;;;;4.45;2.72;;;14.50;99.90;;;;;;5097836;28;20169;-68
2022/07/08 04:53:23;;;;;;;10.60;3.47;;;14.50;99.90;;;;;;5097766;28;20234;-68
2022/07/08 04:55:49;;;;;;;12.25;3.33;;;14.50;99.90;;;;;;5096201;28;20173;-68
2022/07/08 04:58:15;;;;;;;9.40;3.42;;;14.60;99.90;;;;;;5097575;28;20642;-68
2022/07/08 05:00:41;;;;;;;7.68;3.03;;;14.60;99.90;;;;;;5097583;28;20211;-68
2022/07/08 05:03:06;;;;;;;13.15;4.63;;;14.60;99.90;;;;;;5099035;28;20164;-68
2022/07/08 05:05:33;;;;;;;8.30;3.47;;;14.60;99.90;;;;;;5096549;28;20200;-68
2022/07/08 05:08:00;;;;;;;9.63;3.00;;;14.60;99.90;;;;;;5097381;28;20246;-68
2022/07/08 05:10:27;;;;;;;11.40;2.90;;;14.60;99.90;;;;;;5097495;28;20164;-68
2022/07/08 05:12:54;;;;;;;14.68;5.30;;;14.70;99.90;;;;;;5096923;28;20169;-68
2022/07/08 05:15:20;;;;;;;5.95;3.13;;;14.70;99.90;;;;;;5096399;28;20173;-68
2022/07/08 05:17:47;;;;;;;5.72;2.90;;;14.70;99.90;;;;;;5096314;28;20268;-68
2022/07/08 05:20:14;;;;;;;9.20;3.30;;;14.70;99.90;;;;;;5095561;28;20185;-68
2022/07/08 05:22:40;;;;;;;13.10;3.60;;;14.70;99.90;;;;;;5097238;28;20181;-68
2022/07/08 05:25:07;;;;;;;8.80;3.03;;;14.70;99.90;;;;;;5096752;28;20640;-68
2022/07/08 05:27:33;;;;;;;6.35;3.08;;;14.70;99.90;;;;;;5097113;28;20546;-69
2022/07/08 05:29:59;;;;;;;8.95;2.90;;;14.80;99.90;;;;;;5096456;28;20219;-69
2022/07/08 05:32:26;;;;;;;9.00;2.97;;;14.80;99.90;;;;;;5095653;28;20169;-69
2022/07/08 05:34:52;;;;;;;6.82;3.13;;;14.80;99.90;;;;;;5097064;28;20554;-69
2022/07/08 05:37:17;;;;;;;10.95;3.47;;;14.80;99.90;;;;;;5096773;28;20177;-69
2022/07/08 05:39:43;;;;;;;8.57;3.28;;;14.80;99.90;;;;;;5096994;28;20201;-69
2022/07/08 05:42:10;;;;;;;5.68;2.90;;;14.80;99.90;;;;;;5096694;28;20177;-69
2022/07/08 05:44:37;;;;;;;9.30;3.53;;;14.90;99.90;;;;;;5096283;28;20570;-68
2022/07/08 05:47:04;;;;;;;7.18;2.92;;;15.00;99.90;;;;;;5096416;28;20173;-69
2022/07/08 05:49:30;;;;;;;10.95;3.17;;;14.90;99.90;;;;;;5095020;28;20205;-69
2022/07/08 05:51:56;;;;;;;8.75;3.00;;;14.90;99.90;;;;;;5096467;28;20672;-69
2022/07/08 05:54:22;;;;;;;8.98;3.28;;;15.00;99.90;;;;;;5096713;28;20181;-69
2022/07/08 05:56:47;;;;;;;7.57;2.88;;;15.00;99.90;;;;;;5096149;28;20286;-69
2022/07/08 05:59:14;;;;;;;7.13;3.67;;;15.10;99.90;;;;;;5096096;28;20216;-69
2022/07/08 06:01:39;;;;;;;11.18;3.55;;;15.10;99.90;;;;;;5096498;28;20169;-69
2022/07/08 06:04:05;;;;;;;13.48;3.15;;;15.10;99.90;;;;;;5096111;28;20201;-69
2022/07/08 06:06:31;;;;;;;6.95;2.53;;;15.20;99.90;;;;;;5096239;28;20644;-69
2022/07/08 06:08:56;;;;;;;11.57;2.90;;;15.30;99.90;;;;;;5095972;28;20677;-69
2022/07/08 06:11:22;;;;;;;7.05;2.67;;;15.30;99.90;;;;;;5095837;28;20177;-69
2022/07/08 06:13:48;;;;;;;7.30;3.33;;;15.40;99.90;;;;;;5096095;28;20184;-69
2022/07/08 06:16:14;;;;;;;5.50;2.85;;;15.40;99.90;;;;;;5095782;28;20169;-69
2022/07/08 06:18:39;;;;;;;5.50;2.90;;;15.40;99.90;;;;;;5094988;28;20743;-69
2022/07/08 06:21:05;;;;;;;7.05;2.90;;;15.50;99.90;;;;;;5095218;28;20205;-69
2022/07/08 06:23:31;;;;;;;5.78;2.75;;;15.50;99.90;;;;;;5095333;28;20169;-69
2022/07/08 06:25:57;;;;;;;6.72;2.95;;;15.40;99.90;;;;;;5095548;28;20169;-69
2022/07/08 06:28:24;;;;;;;11.10;3.05;;;15.50;99.90;;;;;;5094227;28;20657;-69
2022/07/08 06:30:50;;;;;;;5.93;2.72;;;15.50;99.90;;;;;;5095331;28;20153;-70
2022/07/08 06:33:16;;;;;;;10.13;3.40;;;15.50;99.90;;;;;;5094614;28;20222;-69
2022/07/08 06:35:42;;;;;;;9.15;3.28;;;15.50;99.90;;;;;;5093692;28;20181;-68
2022/07/08 06:38:07;;;;;;;9.68;3.67;;;15.50;99.90;;;;;;5094881;28;20192;-68
2022/07/08 06:40:33;;;;;;;12.10;3.58;;;15.40;99.90;;;;;;5095206;28;20644;-69
2022/07/08 06:42:59;;;;;;;8.45;3.20;;;15.40;99.90;;;;;;5094823;28;20173;-69
2022/07/08 06:45:25;;;;;;;10.48;2.83;;;15.40;99.90;;;;;;5094871;28;20204;-69
2022/07/08 06:47:50;;;;;;;6.55;2.53;;;15.40;99.90;;;;;;5094878;28;20252;-69
2022/07/08 06:50:16;;;;;;;7.88;2.63;;;15.40;99.90;;;;;;5094879;28;20234;-69
2022/07/08 06:52:42;;;;;;;5.30;2.90;;;15.40;99.90;;;;;;5094937;28;20584;-69
2022/07/08 06:55:08;;;;;;;6.43;2.90;;;15.40;99.90;;;;;;5093516;28;20699;-69
2022/07/08 06:57:34;;;;;;;5.75;2.65;;;15.50;99.90;;;;;;5094747;28;20173;-69
2022/07/08 07:00:00;;;;;;;7.88;3.00;;;15.60;99.90;;;;;;5094434;28;20197;-69
2022/07/08 07:02:26;;;;;;;8.75;3.28;;;15.70;99.90;;;;;;5094900;28;20234;-69
2022/07/08 07:04:52;;;;;;;8.70;2.90;;;15.80;99.90;;;;;;5095042;28;20596;-69
2022/07/08 07:07:18;;;;;;;8.23;3.35;;;15.80;99.90;;;;;;5094267;28;20176;-67
2022/07/08 07:09:44;;;;;;;8.88;3.00;;;15.80;99.90;;;;;;5094584;28;20193;-68
2022/07/08 07:12:09;;;;;;;7.03;2.97;;;15.90;99.90;;;;;;5094312;28;20173;-68
2022/07/08 07:14:35;;;;;;;8.35;2.65;;;16.10;99.90;;;;;;5094090;28;20176;-68
2022/07/08 07:17:02;;;;;;;10.93;3.30;;;16.30;99.90;;;;;;5094263;28;20184;-68
2022/07/08 07:19:28;;;;;;;6.47;2.42;;;16.50;99.90;;;;;;5094384;28;20201;-68
2022/07/08 07:21:54;;;;;;;12.65;3.67;;;16.60;99.90;;;;;;5093044;28;20220;-68
2022/07/08 07:24:23;;;;;;;9.27;2.55;;;16.80;99.90;;;;;;5094399;28;20268;-68
2022/07/08 07:26:49;;;;;;;8.05;2.42;;;16.80;99.90;;;;;;5092917;28;20174;-68
2022/07/08 07:29:15;;;;;;;4.85;2.63;;;16.70;99.90;;;;;;5094043;28;20659;-67
2022/07/08 07:31:41;;;;;;;7.85;3.22;;;16.60;99.90;;;;;;5094613;28;20699;-68
2022/07/08 07:34:07;;;;;;;5.95;2.47;;;16.40;99.90;;;;;;5094434;28;20181;-68
2022/07/08 07:36:33;;;;;;;8.07;2.80;;;16.20;99.90;;;;;;5092900;28;20646;-67
2022/07/08 07:38:59;;;;;;;7.53;2.72;;;16.00;99.90;;;;;;5092607;28;20205;-68
2022/07/08 07:41:24;;;;;;;12.05;3.10;;;15.90;99.90;;;;;;5094115;28;20200;-68
2022/07/08 07:43:51;;;;;;;5.03;2.72;;;15.90;99.90;;;;;;5092382;28;20211;-68
2022/07/08 07:46:16;;;;;;;6.53;2.55;;;16.00;99.90;;;;;;5093664;28;20626;-67
2022/07/08 07:48:42;;;;;;;3.80;2.83;;;16.10;99.90;;;;;;5093836;28;20213;-68
2022/07/08 07:51:08;;;;;;;8.52;2.90;;;16.30;99.90;;;;;;5094703;28;20648;-68
2022/07/08 07:53:34;;;;;;;4.53;2.50;;;16.40;99.90;;;;;;5094661;28;20584;-68
2022/07/08 07:55:59;;;;;;;4.82;2.70;;;16.50;99.90;;;;;;5095288;28;20165;-68
2022/07/08 07:58:26;;;;;;;8.35;2.65;;;16.70;99.90;;;;;;5099663;28;20199;-68
2022/07/08 08:00:52;;;;;;;3.75;2.15;;;16.80;99.90;;;;;;5095483;28;20196;-67
2022/07/08 08:03:18;;;;;;;4.97;2.50;;;17.00;99.90;;;;;;5094665;28;20309;-68
2022/07/08 08:05:44;;;;;;;8.15;2.90;;;17.10;99.90;;;;;;5094143;28;20695;-69
2022/07/08 08:08:11;;;;;;;5.50;2.65;;;17.10;99.90;;;;;;5093878;28;20196;-70
2022/07/08 08:10:37;;;;;;;7.75;2.50;;;17.20;99.90;;;;;;5094145;28;20195;-69
2022/07/08 08:13:03;;;;;;;8.13;2.50;;;17.30;99.90;;;;;;5094084;28;20248;-70
2022/07/08 08:15:30;;;;;;;6.90;2.70;;;17.40;99.90;;;;;;5093669;28;20169;-69
2022/07/08 08:17:57;;;;;;;5.30;2.60;;;17.50;99.90;;;;;;5093602;28;20609;-69
2022/07/08 08:20:25;;;;;;;7.35;2.55;;;17.60;99.90;;;;;;5093574;28;20620;-68
2022/07/08 08:22:51;;;;;;;4.68;2.70;;;17.50;99.90;;;;;;5094001;28;20204;-72
2022/07/08 08:25:18;;;;;;;9.82;3.05;;;17.40;99.90;;;;;;5092423;28;20205;-75
2022/07/08 08:27:44;;;;;;;5.93;2.70;;;17.20;99.90;;;;;;5093623;28;20170;-69
2022/07/08 08:30:11;;;;;;;6.47;2.78;;;17.10;99.90;;;;;;5092089;28;20173;-69
2022/07/08 08:32:36;;;;;;;7.80;2.70;;;17.20;99.90;;;;;;5093654;28;20627;-69
2022/07/08 08:35:03;;;;;;;6.32;2.53;;;17.20;99.90;;;;;;5093281;28;20210;-69
2022/07/08 08:37:29;;;;;;;6.53;2.50;;;17.30;99.90;;;;;;5093333;28;20184;-69
2022/07/08 08:39:55;;;;;;;5.32;2.53;;;17.30;99.90;;;;;;5092234;28;20572;-70
2022/07/08 08:42:21;;;;;;;8.13;3.15;;;17.30;99.90;;;;;;5093487;28;20173;-69
2022/07/08 08:44:51;;;;;;;6.47;2.50;;;17.50;99.90;;;;;;5093090;28;20221;-69
2022/07/08 08:47:17;;;;;;;3.95;2.75;;;17.50;99.90;;;;;;5093392;28;20684;-69
2022/07/08 08:49:43;;;;;;;6.43;2.40;;;17.50;99.90;;;;;;5104951;28;20201;-69
2022/07/08 08:52:15;;;;;;;3.47;2.30;;;17.50;99.90;;;;;;5113902;28;20161;-69
2022/07/08 08:54:42;;;;;;;7.15;2.50;;;17.70;99.90;;;;;;5113490;28;20259;-69
2022/07/08 08:57:08;;;;;;;4.78;2.50;;;17.80;99.90;;;;;;5116001;28;20696;-69
2022/07/08 08:59:35;;;;;;;6.47;2.55;;;17.90;99.90;;;;;;5117123;28;20310;-69
2022/07/08 09:02:01;;;;;;;8.40;2.30;;;18.00;99.90;;;;;;5117540;28;20176;-69
2022/07/08 09:04:29;;;;;;;7.65;2.78;;;17.90;99.90;;;;;;5116107;28;20740;-69
2022/07/08 09:06:55;;;;;;;10.93;2.88;;;18.00;99.90;;;;;;5117473;28;20565;-69
2022/07/08 09:09:20;;;;;;;14.23;3.35;;;18.10;99.90;;;;;;5117508;28;20566;-70
2022/07/08 09:11:46;;;;;;;5.10;2.70;;;18.40;99.90;;;;;;5117130;28;20546;-69
2022/07/08 09:14:22;;;;;;;7.93;2.65;;;18.50;99.90;;;;;;5117182;27;20184;-69
2022/07/08 09:17:12;;;;;;;10.55;2.90;;;18.50;99.90;;;;;;5117213;28;20194;-68
2022/07/08 09:19:42;;;;;;;7.45;2.72;;;18.30;99.90;;;;;;5105627;28;20703;-69
2022/07/08 09:22:09;;;;;;;5.88;2.45;;;18.30;99.90;;;;;;5096221;28;20227;-68
2022/07/08 09:24:36;;;;;;;4.88;2.33;;;18.40;99.90;;;;;;5096775;28;20260;-68
2022/07/08 09:27:03;;;;;;;5.90;2.67;;;18.60;99.90;;;;;;5096354;28;20165;-68
2022/07/08 09:29:29;;;;;;;8.55;2.17;;;18.90;99.90;;;;;;5095796;28;20222;-69
2022/07/08 09:32:12;;;;;;;6.85;2.63;;;19.10;99.90;;;;;;5096463;28;20169;-69
2022/07/08 09:34:38;;;;;;;5.28;2.33;;;19.40;99.90;;;;;;5096803;28;20153;-71
2022/07/08 09:37:12;;;;;;;4.35;1.73;;;19.50;99.90;;;;;;5096261;28;20656;-71
2022/07/08 09:39:38;;;;;;;5.88;1.98;;;19.70;99.90;;;;;;5096208;28;20277;-70
2022/07/08 09:42:08;;;;;;;8.85;2.55;;;19.80;99.90;;;;;;5096566;28;20622;-70
2022/07/08 09:44:34;;;;;;;7.80;2.30;;;20.00;99.90;;;;;;5095579;28;20605;-70
2022/07/08 09:47:00;;;;;;;9.77;2.30;;;20.50;99.90;;;;;;5095879;28;20176;-70
2022/07/08 09:49:30;;;;;;;9.40;2.38;;;20.80;99.90;;;;;;5095730;28;20653;-69
2022/07/08 09:51:57;;;;;;;5.38;2.20;;;20.90;99.90;;;;;;5096390;28;20173;-69
2022/07/08 09:54:24;;;;;;;6.28;1.92;;;20.90;99.90;;;;;;5095645;28;20196;-69
2022/07/08 09:57:05;;;;;;;5.57;2.13;;;20.80;99.90;;;;;;5096311;28;20180;-69
2022/07/08 09:59:32;;;;;;;2.42;1.77;;;20.60;99.90;;;;;;5095356;28;20582;-69
2022/07/08 10:01:59;;;;;;;9.80;2.15;;;20.40;99.90;;;;;;5095675;28;20176;-68
2022/07/08 10:04:25;;;;;;;4.10;2.00;;;20.30;99.90;;;;;;5095405;28;20201;-68
2022/07/08 10:06:52;;;;;;;5.05;2.00;;;20.20;99.90;;;;;;5095532;28;20173;-71
2022/07/08 10:09:20;;;;;;;13.02;2.80;;;20.00;99.90;;;;;;5093538;28;20193;-69
2022/07/08 10:11:47;;;;;;;4.40;2.08;;;20.00;99.90;;;;;;5095815;28;20173;-69
2022/07/08 10:14:13;;;;;;;6.97;2.15;;;19.90;99.90;;;;;;5095646;28;20181;-69
2022/07/08 10:16:41;;;;;;;6.95;2.50;;;20.00;99.90;;;;;;5095269;28;20201;-70
2022/07/08 10:19:30;;;;;;;6.18;2.50;;;20.10;99.90;;;;;;5095188;28;20216;-70
2022/07/08 10:21:58;;;;;;;7.97;3.00;;;19.90;99.90;;;;;;5095697;28;20165;-70
2022/07/08 10:24:29;;;;;;;5.20;2.10;;;20.10;99.90;;;;;;5095232;28;20204;-70
2022/07/08 10:27:02;;;;;;;4.82;1.92;;;20.50;99.90;;;;;;5095297;28;20165;-70
2022/07/08 10:29:29;;;;;;;7.93;2.63;;;20.50;99.90;;;;;;5093501;28;20193;-70
2022/07/08 10:31:56;;;;;;;6.80;2.17;;;20.70;99.90;;;;;;5095095;28;20251;-70
2022/07/08 10:34:30;;;;;;;7.80;2.65;;;20.70;99.90;;;;;;5095251;28;20184;-70
2022/07/08 10:36:55;;;;;;;4.00;2.03;;;20.50;99.90;;;;;;5095209;28;20162;-70
2022/07/08 10:39:42;;;;;;;12.13;2.70;;;20.50;99.90;;;;;;5095913;28;20200;-71
2022/07/08 10:42:10;;;;;;;6.65;2.63;;;20.50;99.90;;;;;;5093494;28;20180;-71
2022/07/08 10:44:45;;;;;;;4.32;2.28;;;20.60;99.90;;;;;;5093095;28;20197;-71
2022/07/08 10:47:12;;;;;;;5.18;2.35;;;20.80;99.90;;;;;;5093452;28;20226;-71
2022/07/08 10:49:50;;;;;;;9.10;2.60;;;21.00;99.90;;;;;;5095096;28;20208;-71
2022/07/08 10:52:32;;;;;;;4.18;2.30;;;21.10;99.90;;;;;;5094816;28;20161;-71
2022/07/08 10:55:09;;;;;;;6.22;2.40;;;21.30;99.90;;;;;;5093502;28;20177;-71
2022/07/08 10:57:35;;;;;;;7.45;2.50;;;21.40;99.90;;;;;;5094444;28;20252;-71
2022/07/08 11:00:03;;;;;;;6.57;2.40;;;21.40;99.90;;;;;;5094171;28;20192;-70
2022/07/08 11:02:30;;;;;;;4.70;2.30;;;21.30;99.90;;;;;;5094287;28;20184;-70
2022/07/08 11:04:57;;;;;;;7.57;2.40;;;21.10;99.90;;;;;;5094299;28;20204;-70
2022/07/08 11:07:29;;;;;;;5.18;2.25;;;21.20;99.90;;;;;;5093097;28;20261;-70
2022/07/08 11:10:03;;;;;;;7.13;2.55;;;21.30;99.90;;;;;;5094229;28;20538;-70
2022/07/08 11:12:33;;;;;;;7.03;2.50;;;21.40;99.90;;;;;;5094203;28;20153;-70
2022/07/08 11:15:01;;;;;;;6.00;2.40;;;21.30;99.90;;;;;;5092635;28;20173;-70
2022/07/08 11:17:32;;;;;;;5.15;2.38;;;21.10;99.90;;;;;;5093959;28;20269;-70
2022/07/08 11:20:00;;;;;;;4.28;1.88;;;21.20;99.90;;;;;;5093822;28;20371;-70
2022/07/08 11:22:27;;;;;;;10.40;2.42;;;21.30;99.90;;;;;;5092732;28;20207;-70
2022/07/08 11:24:57;;;;;;;4.25;2.03;;;21.20;99.90;;;;;;5093966;28;20274;-68
2022/07/08 11:27:27;;;;;;;4.45;1.90;;;21.20;99.90;;;;;;5094182;28;20223;-69
2022/07/08 11:29:55;;;;;;;8.65;2.38;;;21.30;99.90;;;;;;5093617;28;20229;-69
2022/07/08 11:32:22;;;;;;;7.30;2.17;;;21.40;99.90;;;;;;5093785;28;20664;-67
2022/07/08 11:34:49;;;;;;;4.47;2.40;;;21.40;99.90;;;;;;5093771;28;20256;-70
2022/07/08 11:37:15;;;;;;;6.28;2.30;;;21.60;99.90;;;;;;5094192;28;20176;-69
2022/07/08 11:39:42;;;;;;;6.20;2.15;;;21.50;99.90;;;;;;5092409;28;20207;-68
2022/07/08 11:42:09;;;;;;;5.93;2.22;;;21.50;99.90;;;;;;5093675;28;20173;-72
2022/07/08 11:44:35;;;;;;;3.05;2.00;;;21.50;99.90;;;;;;5093545;28;20284;-70
2022/07/08 11:47:01;;;;;;;4.32;1.75;;;21.50;99.90;;;;;;5093453;28;20244;-72
2022/07/08 11:49:27;;;;;;;4.15;2.00;;;21.50;99.90;;;;;;5092276;28;20630;-71
2022/07/08 11:51:58;;;;;;;5.78;2.10;;;21.40;99.90;;;;;;5093602;28;20176;-71
2022/07/08 11:54:25;;;;;;;6.85;2.40;;;21.60;99.90;;;;;;5094123;28;20313;-70
2022/07/08 11:56:59;;;;;;;6.03;2.38;;;21.70;99.90;;;;;;5093601;28;20180;-70
2022/07/08 11:59:26;;;;;;;4.22;2.10;;;21.60;99.90;;;;;;5093428;28;20192;-70
2022/07/08 12:01:53;;;;;;;5.65;2.30;;;21.50;99.90;;;;;;5093216;28;20182;-70
2022/07/08 12:04:20;;;;;;;6.30;1.90;;;21.30;99.90;;;;;;5093749;28;20250;-70
2022/07/08 12:06:52;;;;;;;3.88;2.03;;;21.20;99.90;;;;;;5093461;28;20265;-70
2022/07/08 12:09:20;;;;;;;4.95;1.92;;;21.30;99.90;;;;;;5093498;28;20185;-70
2022/07/08 12:11:48;;;;;;;4.88;1.90;;;21.20;99.90;;;;;;5093502;28;20176;-70
2022/07/08 12:14:14;;;;;;;4.35;1.92;;;21.20;99.90;;;;;;5093330;28;20184;-70
2022/07/08 12:16:55;;;;;;;4.30;2.33;;;21.30;99.90;;;;;;5093353;28;20175;-70
2022/07/08 12:19:29;;;;;;;5.93;2.25;;;21.30;99.90;;;;;;5094302;28;20219;-70
2022/07/08 12:21:57;;;;;;;5.13;1.98;;;21.40;99.90;;;;;;5094440;28;20176;-70
2022/07/08 12:24:25;;;;;;;5.80;2.30;;;21.60;99.90;;;;;;5093620;28;20224;-70
2022/07/08 12:26:58;;;;;;;5.57;2.17;;;21.60;99.90;;;;;;5092089;28;20177;-70
2022/07/08 12:29:31;;;;;;;8.98;2.30;;;21.50;99.90;;;;;;5093319;28;20198;-70
2022/07/08 12:31:56;;;;;;;8.25;3.03;;;21.50;99.90;;;;;;5095169;28;20150;-70
2022/07/08 12:34:25;;;;;;;6.20;2.25;;;21.80;99.90;;;;;;5097181;28;20260;-70
2022/07/08 12:36:51;;;;;;;9.40;2.53;;;22.00;99.90;;;;;;5097199;28;20203;-70
2022/07/08 12:39:27;;;;;;;4.90;2.42;;;22.00;99.90;;;;;;5097540;28;20193;-70
2022/07/08 12:42:05;;;;;;;7.40;2.42;;;22.00;99.90;;;;;;5097431;28;20248;-70
2022/07/08 12:44:41;;;;;;;4.40;1.80;;;22.00;99.90;;;;;;5097302;28;20193;-69
2022/07/08 12:47:09;;;;;;;3.95;1.83;;;22.00;99.90;;;;;;5096840;28;20154;-70